Time,TemperatureF,DewpointF,PressureIn,WindDirection,WindDirectionDegrees,WindSpeedMPH,WindSpeedGustMPH,Humidity,HourlyPrecipIn,Conditions,Clouds,dailyrainin,SoftwareType,DateUTC
2013-03-05 00:02:00,35.2,30.0,29.85,East,83,10.4,10.4,81,0.00,CLR,,0.00,WeatherDisplay:10.37,2013-03-05 06:02:00,
2013-03-05 00:07:00,35.3,30.1,29.85,ENE,76,13.8,13.8,81,0.00,CLR,,0.00,WeatherDisplay:10.37,2013-03-05 06:07:00,
2013-03-05 00:12:00,35.4,30.1,29.85,ENE,78,12.7,12.7,81,0.00,CLR,,0.00,WeatherDisplay:10.37,2013-03-05 06:12:00,
2013-03-05 00:17:00,35.5,29.9,29.85,East,80,11.5,11.5,80,0.00,CLR,,0.00,WeatherDisplay:10.37,2013-03-05 06:17:00,
2013-03-05 00:22:00,35.4,29.8,29.85,East,79,11.5,11.5,80,0.00,CLR,,0.00,WeatherDisplay:10.37,2013-03-05 06:22:00,
2013-03-05 00:27:00,35.5,30.2,29.85,ENE,72,13.0,13.0,81,0.00,CLR,,0.00,WeatherDisplay:10.37,2013-03-05 06:27:00,
2013-03-05 00:32:00,35.5,30.2,29.85,East,80,15.0,15.0,81,0.00,CLR,,0.00,WeatherDisplay:10.37,2013-03-05 06:32:00,
2013-03-05 00:37:00,35.5,30.2,29.85,ENE,77,12.7,12.7,81,0.00,CLR,,0.00,WeatherDisplay:10.37,2013-03-05 06:37:00,
2013-03-05 00:42:00,35.5,30.2,29.85,ENE,75,11.5,11.5,81,0.00,CLR,,0.00,WeatherDisplay:10.37,2013-03-05 06:42:00,
2013-03-05 00:47:00,35.5,30.2,29.85,ENE,77,13.8,13.8,81,0.00,CLR,,0.00,WeatherDisplay:10.37,2013-03-05 06:47:00,
2013-03-05 00:52:00,35.6,30.3,29.84,ENE,77,11.5,11.5,81,0.00,CLR,,0.00,WeatherDisplay:10.37,2013-03-05 06:52:00,
2013-03-05 00:57:00,35.6,30.3,29.84,ENE,61,9.2,9.2,81,0.00,CLR,,0.00,WeatherDisplay:10.37,2013-03-05 06:57:00,
2013-03-05 01:02:00,35.7,30.4,29.84,ENE,63,11.5,11.5,81,0.00,CLR,,0.00,WeatherDisplay:10.37,2013-03-05 07:02:00,
2013-03-05 01:07:00,35.7,30.4,29.84,ENE,76,11.5,11.5,81,0.00,CLR,,0.00,WeatherDisplay:10.37,2013-03-05 07:07:00,
2013-03-05 01:12:00,35.7,30.4,29.84,ENE,72,13.8,13.8,81,0.00,CLR,,0.00,WeatherDisplay:10.37,2013-03-05 07:12:00,
2013-03-05 01:17:00,35.7,30.1,29.84,ENE,63,10.4,10.4,80,0.00,CLR,,0.00,WeatherDisplay:10.37,2013-03-05 07:17:00,
2013-03-05 01:22:00,35.8,30.2,29.84,ENE,78,15.0,15.0,80,0.00,CLR,,0.00,WeatherDisplay:10.37,2013-03-05 07:22:00,
2013-03-05 01:27:00,35.9,30.3,29.83,ENE,74,13.8,13.8,80,0.00,CLR,,0.00,WeatherDisplay:10.37,2013-03-05 07:27:00,
2013-03-05 01:32:00,35.9,30.3,29.83,East,81,12.7,12.7,80,0.00,CLR,,0.00,WeatherDisplay:10.37,2013-03-05 07:32:00,
2013-03-05 01:37:00,35.9,30.3,29.83,ENE,67,11.5,11.5,80,0.00,CLR,,0.00,WeatherDisplay:10.37,2013-03-05 07:37:00,
2013-03-05 01:42:00,35.9,30.3,29.83,East,92,11.0,11.0,80,0.00,CLR,,0.00,WeatherDisplay:10.37,2013-03-05 07:42:00,
2013-03-05 01:47:00,35.9,30.3,29.83,East,82,11.5,11.5,80,0.00,CLR,,0.00,WeatherDisplay:10.37,2013-03-05 07:47:00,
2013-03-05 01:52:00,35.9,30.3,29.82,East,88,12.7,12.7,80,0.00,CLR,,0.00,WeatherDisplay:10.37,2013-03-05 07:52:00,
2013-03-05 01:57:00,35.9,30.3,29.82,ENE,71,17.0,17.0,80,0.00,CLR,,0.00,WeatherDisplay:10.37,2013-03-05 07:57:00,
2013-03-05 02:02:00,35.9,30.3,29.82,ENE,66,15.0,15.0,80,0.00,CLR,,0.00,WeatherDisplay:10.37,2013-03-05 08:02:00,
2013-03-05 02:07:00,35.9,30.3,29.82,ENE,57,11.5,11.5,80,0.00,CLR,,0.00,WeatherDisplay:10.37,2013-03-05 08:07:00,
2013-03-05 02:12:00,35.9,30.3,29.82,ENE,74,12.7,12.7,80,0.00,CLR,,0.00,WeatherDisplay:10.37,2013-03-05 08:12:00,
2013-03-05 02:17:00,35.8,30.2,29.82,ENE,75,12.7,12.7,80,0.00,CLR,,0.00,WeatherDisplay:10.37,2013-03-05 08:17:00,
2013-03-05 02:22:00,35.9,30.3,29.81,East,90,13.0,13.0,80,0.00,CLR,,0.00,WeatherDisplay:10.37,2013-03-05 08:22:00,
2013-03-05 02:27:00,35.8,30.2,29.81,ENE,76,11.5,11.5,80,0.00,CLR,,0.00,WeatherDisplay:10.37,2013-03-05 08:27:00,
2013-03-05 02:32:00,35.9,30.3,29.81,ENE,69,15.0,15.0,80,0.00,CLR,,0.00,WeatherDisplay:10.37,2013-03-05 08:32:00,
2013-03-05 02:37:00,35.9,30.3,29.80,ENE,74,18.4,18.4,80,0.00,CLR,,0.00,WeatherDisplay:10.37,2013-03-05 08:37:00,
2013-03-05 02:42:00,36.0,30.4,29.80,ENE,78,11.5,11.5,80,0.00,CLR,,0.00,WeatherDisplay:10.37,2013-03-05 08:42:00,
2013-03-05 02:47:00,35.9,30.3,29.79,East,87,13.0,13.0,80,0.00,CLR,,0.00,WeatherDisplay:10.37,2013-03-05 08:47:00,
2013-03-05 02:52:00,36.0,30.4,29.79,East,87,17.3,17.3,80,0.00,CLR,,0.00,WeatherDisplay:10.37,2013-03-05 08:52:00,
2013-03-05 02:57:00,36.1,30.5,29.79,ENE,72,12.7,12.7,80,0.00,CLR,,0.00,WeatherDisplay:10.37,2013-03-05 08:57:00,
2013-03-05 03:02:00,36.1,30.5,29.79,ENE,70,15.0,15.0,80,0.00,CLR,,0.00,WeatherDisplay:10.37,2013-03-05 09:02:00,
2013-03-05 03:07:00,36.1,30.5,29.78,ENE,65,16.1,16.1,80,0.00,CLR,,0.00,WeatherDisplay:10.37,2013-03-05 09:07:00,
2013-03-05 03:12:00,36.1,30.5,29.78,ENE,67,16.0,16.0,80,0.00,CLR,,0.00,WeatherDisplay:10.37,2013-03-05 09:12:00,
2013-03-05 03:17:00,36.1,30.5,29.78,East,84,11.5,11.5,80,0.00,CLR,,0.00,WeatherDisplay:10.37,2013-03-05 09:17:00,
2013-03-05 03:22:00,36.1,30.5,29.78,ENE,74,13.8,13.8,80,0.00,CLR,,0.00,WeatherDisplay:10.37,2013-03-05 09:22:00,
2013-03-05 03:28:00,36.2,30.6,29.78,ENE,69,10.4,10.4,80,0.00,CLR,,0.00,WeatherDisplay:10.37,2013-03-05 09:28:00,
2013-03-05 03:33:00,36.2,30.6,29.78,East,81,11.5,11.5,80,0.00,CLR,,0.00,WeatherDisplay:10.37,2013-03-05 09:33:00,
2013-03-05 03:38:00,36.2,30.6,29.78,East,84,7.0,7.0,80,0.00,CLR,,0.00,WeatherDisplay:10.37,2013-03-05 09:38:00,
2013-03-05 03:43:00,36.2,30.6,29.78,East,81,11.5,11.5,80,0.00,CLR,,0.00,WeatherDisplay:10.37,2013-03-05 09:43:00,
2013-03-05 03:48:00,36.2,30.6,29.78,East,96,11.5,11.5,80,0.00,CLR,,0.00,WeatherDisplay:10.37,2013-03-05 09:48:00,
2013-03-05 03:53:00,36.3,30.7,29.78,East,89,15.0,15.0,80,0.00,CLR,,0.00,WeatherDisplay:10.37,2013-03-05 09:53:00,
2013-03-05 03:58:00,36.4,30.5,29.78,East,88,11.5,11.5,79,0.00,CLR,,0.00,WeatherDisplay:10.37,2013-03-05 09:58:00,
2013-03-05 04:03:00,36.5,30.6,29.78,East,91,11.5,11.5,79,0.00,CLR,,0.00,WeatherDisplay:10.37,2013-03-05 10:03:00,
2013-03-05 04:08:00,36.6,30.7,29.78,East,93,12.0,12.0,79,0.00,CLR,,0.00,WeatherDisplay:10.37,2013-03-05 10:08:00,
2013-03-05 04:13:00,36.6,30.7,29.79,East,86,10.4,10.4,79,0.00,CLR,,0.00,WeatherDisplay:10.37,2013-03-05 10:13:00,
2013-03-05 04:18:00,36.7,30.8,29.78,East,79,10.4,10.4,79,0.00,CLR,,0.00,WeatherDisplay:10.37,2013-03-05 10:18:00,
2013-03-05 04:23:00,36.8,30.9,29.78,East,96,14.0,14.0,79,0.00,CLR,,0.00,WeatherDisplay:10.37,2013-03-05 10:23:00,
2013-03-05 04:28:00,36.8,30.6,29.78,East,84,13.8,13.8,78,0.00,CLR,,0.00,WeatherDisplay:10.37,2013-03-05 10:28:00,
2013-03-05 04:33:00,36.8,30.6,29.78,East,92,12.7,12.7,78,0.00,CLR,,0.00,WeatherDisplay:10.37,2013-03-05 10:33:00,
2013-03-05 04:38:00,36.9,30.7,29.78,ENE,77,12.7,12.7,78,0.00,CLR,,0.00,WeatherDisplay:10.37,2013-03-05 10:38:00,
2013-03-05 04:43:00,36.9,30.7,29.78,East,96,13.8,13.8,78,0.00,CLR,,0.00,WeatherDisplay:10.37,2013-03-05 10:43:00,
2013-03-05 04:48:00,37.0,30.8,29.78,East,94,11.5,11.5,78,0.00,CLR,,0.00,WeatherDisplay:10.37,2013-03-05 10:48:00,
2013-03-05 04:53:00,37.0,30.5,29.77,East,96,11.5,11.5,77,0.00,CLR,,0.00,WeatherDisplay:10.37,2013-03-05 10:53:00,
2013-03-05 04:58:00,37.0,30.5,29.78,East,83,12.7,12.7,77,0.00,CLR,,0.00,WeatherDisplay:10.37,2013-03-05 10:58:00,
2013-03-05 05:03:00,36.9,30.7,29.78,ENE,68,9.2,9.2,78,0.00,CLR,,0.00,WeatherDisplay:10.37,2013-03-05 11:03:00,
2013-03-05 05:08:00,36.9,30.7,29.78,East,90,10.4,10.4,78,0.00,CLR,,0.00,WeatherDisplay:10.37,2013-03-05 11:08:00,
2013-03-05 05:13:00,36.9,30.7,29.77,East,92,15.0,15.0,78,0.00,CLR,,0.00,WeatherDisplay:10.37,2013-03-05 11:13:00,
2013-03-05 05:18:00,36.9,30.7,29.77,East,84,11.5,11.5,78,0.00,CLR,,0.00,WeatherDisplay:10.37,2013-03-05 11:18:00,
2013-03-05 05:23:00,36.9,30.7,29.78,East,94,11.5,11.5,78,0.00,CLR,,0.00,WeatherDisplay:10.37,2013-03-05 11:23:00,
2013-03-05 05:28:00,36.9,30.7,29.78,East,89,10.0,10.0,78,0.00,CLR,,0.00,WeatherDisplay:10.37,2013-03-05 11:28:00,
2013-03-05 05:33:00,36.9,30.7,29.78,East,90,12.0,12.0,78,0.00,CLR,,0.00,WeatherDisplay:10.37,2013-03-05 11:33:00,
2013-03-05 05:38:00,36.9,30.7,29.77,ENE,77,12.7,12.7,78,0.00,CLR,,0.00,WeatherDisplay:10.37,2013-03-05 11:38:00,
2013-03-05 05:43:00,36.9,30.7,29.77,East,94,12.7,12.7,78,0.00,CLR,,0.00,WeatherDisplay:10.37,2013-03-05 11:43:00,
2013-03-05 05:48:00,36.9,30.7,29.78,East,82,10.4,10.4,78,0.00,CLR,,0.00,WeatherDisplay:10.37,2013-03-05 11:48:00,
2013-03-05 05:53:00,36.9,30.7,29.78,East,82,9.0,9.0,78,0.00,CLR,,0.00,WeatherDisplay:10.37,2013-03-05 11:53:00,
2013-03-05 05:58:00,36.9,30.7,29.78,ENE,68,10.4,10.4,78,0.00,CLR,,0.00,WeatherDisplay:10.37,2013-03-05 11:58:00,
2013-03-05 06:03:00,36.9,30.7,29.77,East,82,11.5,11.5,78,0.00,CLR,,0.00,WeatherDisplay:10.37,2013-03-05 12:03:00,
2013-03-05 06:08:00,36.9,30.7,29.77,ENE,64,11.5,11.5,78,0.00,CLR,,0.00,WeatherDisplay:10.37,2013-03-05 12:08:00,
2013-03-05 06:13:00,36.8,30.6,29.76,East,89,12.0,12.0,78,0.00,CLR,,0.00,WeatherDisplay:10.37,2013-03-05 12:13:00,
2013-03-05 06:18:00,36.8,30.6,29.76,ENE,78,11.5,11.5,78,0.00,CLR,,0.00,WeatherDisplay:10.37,2013-03-05 12:18:00,
2013-03-05 06:23:00,36.8,30.6,29.76,East,86,12.7,12.7,78,0.00,CLR,,0.00,WeatherDisplay:10.37,2013-03-05 12:23:00,
2013-03-05 06:28:00,36.8,30.6,29.76,East,82,10.4,10.4,78,0.00,CLR,,0.00,WeatherDisplay:10.37,2013-03-05 12:28:00,
2013-03-05 06:33:00,36.8,30.6,29.76,East,84,9.2,9.2,78,0.00,CLR,,0.00,WeatherDisplay:10.37,2013-03-05 12:33:00,
2013-03-05 06:38:00,36.8,30.6,29.76,ENE,78,11.5,11.5,78,0.00,CLR,,0.00,WeatherDisplay:10.37,2013-03-05 12:38:00,
2013-03-05 06:43:00,36.8,30.6,29.76,ENE,71,10.4,10.4,78,0.00,CLR,,0.00,WeatherDisplay:10.37,2013-03-05 12:43:00,
2013-03-05 06:48:00,36.7,30.8,29.76,ENE,78,11.5,11.5,79,0.00,CLR,,0.00,WeatherDisplay:10.37,2013-03-05 12:48:00,
2013-03-05 06:53:00,36.7,30.8,29.76,ENE,68,11.5,11.5,79,0.00,CLR,,0.00,WeatherDisplay:10.37,2013-03-05 12:53:00,
2013-03-05 06:58:00,36.6,30.7,29.76,ENE,78,11.5,11.5,79,0.00,CLR,,0.00,WeatherDisplay:10.37,2013-03-05 12:58:00,
2013-03-05 07:03:00,36.6,30.7,29.76,ENE,76,6.9,6.9,79,0.00,CLR,,0.00,WeatherDisplay:10.37,2013-03-05 13:03:00,
2013-03-05 07:08:00,36.6,30.7,29.77,East,81,10.4,10.4,79,0.00,CLR,,0.00,WeatherDisplay:10.37,2013-03-05 13:08:00,
2013-03-05 07:13:00,36.6,30.7,29.76,ENE,71,11.0,11.0,79,0.00,CLR,,0.00,WeatherDisplay:10.37,2013-03-05 13:13:00,
2013-03-05 07:18:00,36.6,30.7,29.77,East,85,11.5,11.5,79,0.00,CLR,,0.00,WeatherDisplay:10.37,2013-03-05 13:18:00,
2013-03-05 07:23:00,36.6,31.0,29.76,ENE,72,11.5,11.5,80,0.00,CLR,,0.00,WeatherDisplay:10.37,2013-03-05 13:23:00,
2013-03-05 07:28:00,36.5,30.9,29.76,ENE,70,10.4,10.4,80,0.00,CLR,,0.00,WeatherDisplay:10.37,2013-03-05 13:28:00,
2013-03-05 07:33:00,36.5,30.9,29.76,East,80,10.4,10.4,80,0.00,CLR,,0.00,WeatherDisplay:10.37,2013-03-05 13:33:00,
2013-03-05 07:38:00,36.6,31.0,29.76,East,94,10.4,10.4,80,0.00,CLR,,0.00,WeatherDisplay:10.37,2013-03-05 13:38:00,
2013-03-05 07:43:00,36.5,30.9,29.76,East,84,10.4,10.4,80,0.00,CLR,,0.00,WeatherDisplay:10.37,2013-03-05 13:43:00,
2013-03-05 07:48:00,36.5,31.2,29.76,East,84,9.2,9.2,81,0.00,CLR,,0.00,WeatherDisplay:10.37,2013-03-05 13:48:00,
2013-03-05 07:53:00,36.4,31.1,29.75,East,81,6.9,6.9,81,0.00,CLR,,0.00,WeatherDisplay:10.37,2013-03-05 13:53:00,
2013-03-05 07:58:00,36.4,31.4,29.75,East,84,10.4,10.4,82,0.00,CLR,,0.00,WeatherDisplay:10.37,2013-03-05 13:58:00,
2013-03-05 08:03:00,36.4,31.4,29.75,ENE,70,9.0,9.0,82,0.00,CLR,,0.00,WeatherDisplay:10.37,2013-03-05 14:03:00,
2013-03-05 08:08:00,36.4,31.4,29.75,East,82,10.4,10.4,82,0.00,CLR,,0.00,WeatherDisplay:10.37,2013-03-05 14:08:00,
2013-03-05 08:13:00,36.4,31.4,29.75,East,82,9.2,9.2,82,0.00,CLR,,0.00,WeatherDisplay:10.37,2013-03-05 14:13:00,
2013-03-05 08:18:00,36.4,31.4,29.75,ENE,58,9.2,9.2,82,0.00,CLR,,0.00,WeatherDisplay:10.37,2013-03-05 14:18:00,
2013-03-05 08:23:00,36.4,31.4,29.75,East,84,9.2,9.2,82,0.00,CLR,,0.00,WeatherDisplay:10.37,2013-03-05 14:23:00,
2013-03-05 08:28:00,36.4,31.4,29.75,ENE,77,11.5,11.5,82,0.00,CLR,,0.00,WeatherDisplay:10.37,2013-03-05 14:28:00,
2013-03-05 08:34:00,36.4,31.7,29.74,ENE,77,8.1,8.1,83,0.00,CLR,,0.00,WeatherDisplay:10.37,2013-03-05 14:34:00,
2013-03-05 08:39:00,36.4,31.7,29.74,ENE,78,10.4,10.4,83,0.00,CLR,,0.00,WeatherDisplay:10.37,2013-03-05 14:39:00,
2013-03-05 08:44:00,36.3,31.6,29.74,ENE,78,11.5,11.5,83,0.00,CLR,,0.00,WeatherDisplay:10.37,2013-03-05 14:44:00,
2013-03-05 08:49:00,36.3,31.9,29.74,East,83,10.4,10.4,84,0.00,CLR,,0.00,WeatherDisplay:10.37,2013-03-05 14:49:00,
2013-03-05 08:54:00,36.3,31.9,29.74,ENE,69,11.5,11.5,84,0.00,CLR,,0.00,WeatherDisplay:10.37,2013-03-05 14:54:00,
2013-03-05 08:59:00,36.3,31.9,29.74,ENE,75,13.0,13.0,84,0.00,CLR,,0.00,WeatherDisplay:10.37,2013-03-05 14:59:00,
2013-03-05 09:04:00,36.2,31.8,29.73,ENE,76,10.4,10.4,84,0.00,CLR,,0.00,WeatherDisplay:10.37,2013-03-05 15:04:00,
2013-03-05 09:09:00,36.2,32.1,29.74,East,90,11.5,11.5,85,0.00,CLR,,0.00,WeatherDisplay:10.37,2013-03-05 15:09:00,
2013-03-05 09:14:00,36.2,32.1,29.73,East,83,10.4,10.4,85,0.00,CLR,,0.00,WeatherDisplay:10.37,2013-03-05 15:14:00,
2013-03-05 09:19:00,36.2,32.1,29.73,ENE,73,10.4,10.4,85,0.00,CLR,,0.00,WeatherDisplay:10.37,2013-03-05 15:19:00,
2013-03-05 09:24:00,36.3,32.5,29.73,East,85,3.5,3.5,86,0.00,CLR,,0.00,WeatherDisplay:10.37,2013-03-05 15:24:00,
2013-03-05 09:29:00,36.4,32.6,29.73,ENE,78,9.0,9.0,86,0.00,CLR,,0.00,WeatherDisplay:10.37,2013-03-05 15:29:00,
2013-03-05 09:34:00,36.4,32.6,29.72,ENE,76,4.6,4.6,86,0.00,CLR,,0.00,WeatherDisplay:10.37,2013-03-05 15:34:00,
2013-03-05 09:39:00,36.3,32.8,29.72,ENE,72,4.6,4.6,87,0.00,CLR,,0.00,WeatherDisplay:10.37,2013-03-05 15:39:00,
2013-03-05 09:44:00,36.3,32.8,29.72,ENE,77,9.2,9.2,87,0.00,CLR,,0.00,WeatherDisplay:10.37,2013-03-05 15:44:00,
2013-03-05 09:49:00,36.3,32.8,29.72,ENE,74,11.0,11.0,87,0.00,CLR,,0.00,WeatherDisplay:10.37,2013-03-05 15:49:00,
2013-03-05 09:54:00,36.3,32.8,29.72,ENE,74,11.0,11.0,87,0.00,CLR,,0.00,WeatherDisplay:10.37,2013-03-05 15:54:00,
2013-03-05 09:59:00,36.2,32.7,29.72,ENE,76,11.5,11.5,87,0.00,CLR,,0.00,WeatherDisplay:10.37,2013-03-05 15:59:00,
2013-03-05 10:04:00,36.2,32.7,29.72,ENE,78,10.4,10.4,87,0.00,CLR,,0.00,WeatherDisplay:10.37,2013-03-05 16:04:00,
2013-03-05 10:09:00,36.2,32.7,29.72,ENE,67,6.0,6.0,87,0.00,CLR,,0.00,WeatherDisplay:10.37,2013-03-05 16:09:00,
2013-03-05 10:14:00,36.2,33.0,29.73,ENE,65,3.5,3.5,88,0.00,CLR,,0.00,WeatherDisplay:10.37,2013-03-05 16:14:00,
2013-03-05 10:19:00,36.2,32.7,29.73,ENE,67,4.0,4.0,87,0.00,CLR,,0.00,WeatherDisplay:10.37,2013-03-05 16:19:00,
2013-03-05 10:24:00,36.2,32.7,29.73,ENE,67,2.3,2.3,87,0.00,CLR,,0.00,WeatherDisplay:10.37,2013-03-05 16:24:00,
2013-03-05 10:29:00,36.2,33.0,29.73,ENE,67,4.0,4.0,88,0.00,CLR,,0.00,WeatherDisplay:10.37,2013-03-05 16:29:00,
2013-03-05 10:34:00,35.9,32.7,29.72,ENE,66,5.8,5.8,88,0.00,CLR,,0.00,WeatherDisplay:10.37,2013-03-05 16:34:00,
2013-03-05 10:39:00,35.6,32.4,29.72,ENE,63,5.0,5.0,88,0.01,RA,,0.01,WeatherDisplay:10.37,2013-03-05 16:39:00,
2013-03-05 10:44:00,35.2,32.0,29.71,NE,44,6.9,6.9,88,0.01,RA,,0.02,WeatherDisplay:10.37,2013-03-05 16:44:00,
2013-03-05 10:49:00,34.9,32.0,29.71,NE,35,5.0,5.0,89,0.02,RA,,0.02,WeatherDisplay:10.37,2013-03-05 16:49:00,
2013-03-05 10:54:00,34.7,31.8,29.72,NE,36,4.0,4.0,89,0.03,RA,,0.03,WeatherDisplay:10.37,2013-03-05 16:54:00,
2013-03-05 10:59:00,34.6,32.0,29.72,NE,34,3.5,3.5,90,0.03,RA,,0.03,WeatherDisplay:10.37,2013-03-05 16:59:00,
2013-03-05 11:04:00,34.6,32.0,29.71,NE,34,3.5,3.5,90,0.03,,,0.03,WeatherDisplay:10.37,2013-03-05 17:04:00,
2013-03-05 11:09:00,34.6,32.0,29.71,NE,34,3.5,3.5,90,0.04,RA,,0.04,WeatherDisplay:10.37,2013-03-05 17:09:00,
2013-03-05 11:14:00,34.6,32.0,29.71,NNE,33,4.0,4.0,90,0.04,RA,,0.04,WeatherDisplay:10.37,2013-03-05 17:14:00,
2013-03-05 11:19:00,34.5,32.1,29.71,NE,34,3.5,3.5,91,0.04,,,0.04,WeatherDisplay:10.37,2013-03-05 17:19:00,
2013-03-05 11:24:00,34.4,32.0,29.71,NE,34,4.6,4.6,91,0.05,RA,,0.05,WeatherDisplay:10.37,2013-03-05 17:24:00,
2013-03-05 11:29:00,34.3,31.9,29.70,NNE,32,5.8,5.8,91,0.05,RA,,0.05,WeatherDisplay:10.37,2013-03-05 17:29:00,
2013-03-05 11:34:00,34.2,31.8,29.70,NNE,29,4.6,5.0,91,0.05,,,0.05,WeatherDisplay:10.37,2013-03-05 17:34:00,
2013-03-05 11:39:00,34.1,32.0,29.70,NNE,30,5.8,5.8,92,0.05,RA,,0.06,WeatherDisplay:10.37,2013-03-05 17:39:00,
2013-03-05 11:44:00,34.0,31.9,29.69,NNE,30,5.8,5.8,92,0.05,RA,,0.06,WeatherDisplay:10.37,2013-03-05 17:44:00,
2013-03-05 11:49:00,33.9,31.8,29.70,NNE,29,5.0,5.0,92,0.04,,,0.06,WeatherDisplay:10.37,2013-03-05 17:49:00,
2013-03-05 11:54:00,33.9,31.8,29.70,NNE,30,4.6,4.6,92,0.04,RA,,0.07,WeatherDisplay:10.37,2013-03-05 17:54:00,
2013-03-05 11:59:00,34.0,31.9,29.70,NNE,29,2.3,2.3,92,0.04,RA,,0.07,WeatherDisplay:10.37,2013-03-05 17:59:00,
2013-03-05 12:04:00,34.1,32.0,29.70,NNE,29,3.5,3.5,92,0.04,CLR,,0.07,WeatherDisplay:10.37,2013-03-05 18:04:00,
2013-03-05 12:09:00,34.1,32.3,29.69,NNE,28,3.5,3.5,93,0.03,CLR,,0.07,WeatherDisplay:10.37,2013-03-05 18:09:00,
2013-03-05 12:14:00,34.0,32.2,29.69,NNE,28,4.0,4.0,93,0.03,CLR,,0.07,WeatherDisplay:10.37,2013-03-05 18:14:00,
2013-03-05 12:20:00,33.9,32.1,29.69,NNE,29,3.5,3.5,93,0.03,CLR,,0.07,WeatherDisplay:10.37,2013-03-05 18:20:00,
2013-03-05 12:25:00,33.8,32.0,29.69,NNE,29,3.5,3.5,93,0.02,CLR,,0.07,WeatherDisplay:10.37,2013-03-05 18:25:00,
2013-03-05 12:30:00,33.7,31.9,29.69,NNE,28,5.0,5.0,93,0.02,CLR,,0.07,WeatherDisplay:10.37,2013-03-05 18:30:00,
2013-03-05 12:35:00,33.6,31.8,29.69,NNE,26,3.5,3.5,93,0.03,RA,,0.08,WeatherDisplay:10.37,2013-03-05 18:35:00,
2013-03-05 12:40:00,33.5,31.7,29.69,NNE,28,3.5,3.5,93,0.02,RA,,0.08,WeatherDisplay:10.37,2013-03-05 18:40:00,
2013-03-05 12:45:00,33.5,31.7,29.68,NNE,26,4.6,4.6,93,0.02,CLR,,0.08,WeatherDisplay:10.37,2013-03-05 18:45:00,
2013-03-05 12:50:00,33.5,31.7,29.68,NNE,24,4.0,4.0,93,0.03,RA,,0.09,WeatherDisplay:10.37,2013-03-05 18:50:00,
2013-03-05 12:55:00,33.5,31.7,29.67,NW,320,6.0,6.0,93,0.02,RA,,0.09,WeatherDisplay:10.37,2013-03-05 18:55:00,
2013-03-05 13:00:00,33.5,31.7,29.67,NW,317,5.8,5.8,93,0.02,,,0.09,WeatherDisplay:10.37,2013-03-05 19:00:00,
2013-03-05 13:05:00,33.5,31.7,29.68,NW,315,5.0,5.0,93,0.02,CLR,,0.09,WeatherDisplay:10.37,2013-03-05 19:05:00,
2013-03-05 13:10:00,33.5,31.7,29.68,NW,316,4.6,4.6,93,0.03,RA,,0.10,WeatherDisplay:10.37,2013-03-05 19:10:00,
2013-03-05 13:15:00,33.5,31.7,29.68,NW,315,4.6,4.6,93,0.03,RA,,0.10,WeatherDisplay:10.37,2013-03-05 19:15:00,
2013-03-05 13:20:00,33.4,31.6,29.67,NW,315,3.0,3.0,93,0.03,,,0.10,WeatherDisplay:10.37,2013-03-05 19:20:00,
2013-03-05 13:25:00,33.5,31.7,29.67,NW,315,3.5,3.5,93,0.04,RA,,0.11,WeatherDisplay:10.37,2013-03-05 19:25:00,
2013-03-05 13:30:00,33.4,31.6,29.67,NW,315,3.5,3.5,93,0.04,RA,,0.11,WeatherDisplay:10.37,2013-03-05 19:30:00,
2013-03-05 13:35:00,33.4,31.6,29.67,NW,315,3.5,3.5,93,0.03,,,0.11,WeatherDisplay:10.37,2013-03-05 19:35:00,
2013-03-05 13:40:00,33.3,31.5,29.67,NW,315,3.5,3.5,93,0.03,CLR,,0.11,WeatherDisplay:10.37,2013-03-05 19:40:00,
2013-03-05 13:45:00,33.2,31.7,29.67,NW,314,4.6,4.6,94,0.03,CLR,,0.11,WeatherDisplay:10.37,2013-03-05 19:45:00,
2013-03-05 13:50:00,33.0,31.5,29.67,NW,312,5.8,5.8,94,0.03,CLR,,0.11,WeatherDisplay:10.37,2013-03-05 19:50:00,
2013-03-05 13:55:00,32.9,31.4,29.67,WNW,299,5.8,5.8,94,0.02,CLR,,0.11,WeatherDisplay:10.37,2013-03-05 19:55:00,
2013-03-05 14:00:00,32.8,31.3,29.67,WNW,298,6.9,6.9,94,0.02,CLR,,0.11,WeatherDisplay:10.37,2013-03-05 20:00:00,
2013-03-05 14:05:00,32.8,31.3,29.67,WNW,296,5.8,5.8,94,0.02,CLR,,0.11,WeatherDisplay:10.37,2013-03-05 20:05:00,
2013-03-05 14:10:00,32.8,31.3,29.67,WNW,294,6.0,6.0,94,0.01,CLR,,0.11,WeatherDisplay:10.37,2013-03-05 20:10:00,
2013-03-05 14:15:00,32.8,31.3,29.67,WNW,286,7.0,7.0,94,0.01,CLR,,0.11,WeatherDisplay:10.37,2013-03-05 20:15:00,
2013-03-05 14:20:00,32.7,31.2,29.67,WNW,286,8.1,8.1,94,0.01,CLR,,0.11,WeatherDisplay:10.37,2013-03-05 20:20:00,
2013-03-05 14:25:00,32.7,31.2,29.67,WNW,288,8.1,8.1,94,0.00,CLR,,0.11,WeatherDisplay:10.37,2013-03-05 20:25:00,
2013-03-05 14:30:00,32.7,31.2,29.68,WNW,285,10.4,10.4,94,0.00,CLR,,0.12,WeatherDisplay:10.37,2013-03-05 20:30:00,
2013-03-05 14:35:00,32.7,31.2,29.68,WNW,290,8.0,8.0,94,0.01,RA,,0.12,WeatherDisplay:10.37,2013-03-05 20:35:00,
2013-03-05 14:40:00,32.7,31.2,29.68,WNW,291,10.4,10.4,94,0.01,,,0.12,WeatherDisplay:10.37,2013-03-05 20:40:00,
2013-03-05 14:45:00,32.7,31.2,29.67,WNW,292,6.9,6.9,94,0.01,CLR,,0.12,WeatherDisplay:10.37,2013-03-05 20:45:00,
2013-03-05 14:50:00,32.7,31.2,29.67,WNW,298,11.5,11.5,94,0.01,CLR,,0.12,WeatherDisplay:10.37,2013-03-05 20:50:00,
2013-03-05 14:55:00,32.7,31.2,29.68,WNW,287,12.0,12.0,94,0.01,CLR,,0.12,WeatherDisplay:10.37,2013-03-05 20:55:00,
2013-03-05 15:00:00,32.7,31.2,29.68,WNW,282,11.5,11.5,94,0.01,CLR,,0.12,WeatherDisplay:10.37,2013-03-05 21:00:00,
2013-03-05 15:05:00,32.7,31.2,29.68,WNW,288,12.7,12.7,94,0.01,CLR,,0.12,WeatherDisplay:10.37,2013-03-05 21:05:00,
2013-03-05 15:10:00,32.7,31.2,29.69,WNW,288,11.5,11.5,94,0.01,CLR,,0.12,WeatherDisplay:10.37,2013-03-05 21:10:00,
2013-03-05 15:15:00,32.6,31.1,29.68,WNW,283,11.5,11.5,94,0.01,CLR,,0.12,WeatherDisplay:10.37,2013-03-05 21:15:00,
2013-03-05 15:20:00,32.6,31.1,29.68,West,275,11.5,11.5,94,0.01,CLR,,0.12,WeatherDisplay:10.37,2013-03-05 21:20:00,
2013-03-05 15:25:00,32.7,31.2,29.68,WNW,294,12.7,12.7,94,0.01,CLR,,0.12,WeatherDisplay:10.37,2013-03-05 21:25:00,
2013-03-05 15:30:00,32.6,31.1,29.68,WNW,282,18.0,18.0,94,0.01,CLR,,0.12,WeatherDisplay:10.37,2013-03-05 21:30:00,
2013-03-05 15:35:00,32.6,31.1,29.69,NW,311,12.7,12.7,94,0.00,CLR,,0.12,WeatherDisplay:10.37,2013-03-05 21:35:00,
2013-03-05 15:40:00,32.6,31.1,29.69,West,268,20.7,20.7,94,0.00,CLR,,0.12,WeatherDisplay:10.37,2013-03-05 21:40:00,
2013-03-05 15:45:00,32.5,31.0,29.69,WNW,298,18.4,18.4,94,0.00,CLR,,0.12,WeatherDisplay:10.37,2013-03-05 21:45:00,
2013-03-05 15:51:00,32.4,30.9,29.69,WNW,297,25.3,25.3,94,0.00,CLR,,0.12,WeatherDisplay:10.37,2013-03-05 21:51:00,
2013-03-05 15:56:00,32.1,30.6,29.69,WNW,296,25.3,25.3,94,0.00,CLR,,0.12,WeatherDisplay:10.37,2013-03-05 21:56:00,
2013-03-05 16:01:00,31.9,30.4,29.70,WNW,292,26.5,26.5,94,0.00,CLR,,0.12,WeatherDisplay:10.37,2013-03-05 22:01:00,
2013-03-05 16:06:00,31.7,30.2,29.70,WNW,294,20.7,20.7,94,0.00,CLR,,0.12,WeatherDisplay:10.37,2013-03-05 22:06:00,
2013-03-05 16:11:00,31.6,30.1,29.70,WNW,294,26.5,26.5,94,0.00,CLR,,0.12,WeatherDisplay:10.37,2013-03-05 22:11:00,
2013-03-05 16:16:00,31.4,29.9,29.70,WNW,294,24.0,24.0,94,0.00,CLR,,0.12,WeatherDisplay:10.37,2013-03-05 22:16:00,
2013-03-05 16:21:00,31.1,29.6,29.70,WNW,294,25.3,25.3,94,0.00,CLR,,0.12,WeatherDisplay:10.37,2013-03-05 22:21:00,
2013-03-05 16:26:00,30.8,29.3,29.70,WNW,294,18.0,18.0,94,0.00,CLR,,0.12,WeatherDisplay:10.37,2013-03-05 22:26:00,
2013-03-05 16:31:00,30.6,29.1,29.71,WNW,294,27.6,27.6,94,0.00,CLR,,0.12,WeatherDisplay:10.37,2013-03-05 22:31:00,
2013-03-05 16:36:00,30.4,28.9,29.71,WNW,294,32.2,32.2,94,0.00,CLR,,0.12,WeatherDisplay:10.37,2013-03-05 22:36:00,
2013-03-05 16:41:00,30.3,29.0,29.71,WNW,294,19.6,19.6,95,0.00,CLR,,0.12,WeatherDisplay:10.37,2013-03-05 22:41:00,
2013-03-05 16:46:00,30.3,29.0,29.71,WNW,294,24.2,24.2,95,0.00,CLR,,0.12,WeatherDisplay:10.37,2013-03-05 22:46:00,
2013-03-05 16:51:00,30.2,28.9,29.72,WNW,294,26.5,26.5,95,0.01,RA,,0.13,WeatherDisplay:10.37,2013-03-05 22:51:00,
2013-03-05 16:56:00,30.1,28.8,29.72,WNW,294,21.9,21.9,95,0.01,RA,,0.13,WeatherDisplay:10.37,2013-03-05 22:56:00,
2013-03-05 17:01:00,30.1,28.8,29.72,WNW,294,24.2,24.2,95,0.01,CLR,,0.13,WeatherDisplay:10.37,2013-03-05 23:01:00,
2013-03-05 17:06:00,30.1,28.8,29.72,WNW,294,29.9,29.9,95,0.01,CLR,,0.13,WeatherDisplay:10.37,2013-03-05 23:06:00,
2013-03-05 17:11:00,30.0,28.7,29.72,WNW,294,20.0,26.0,95,0.00,CLR,,0.13,WeatherDisplay:10.37,2013-03-05 23:11:00,
2013-03-05 17:16:00,29.9,28.6,29.72,WNW,294,32.2,32.2,95,0.01,CLR,,0.13,WeatherDisplay:10.37,2013-03-05 23:16:00,
2013-03-05 17:21:00,29.8,28.5,29.72,WNW,294,31.1,31.1,95,0.01,CLR,,0.13,WeatherDisplay:10.37,2013-03-05 23:21:00,
2013-03-05 17:26:00,29.8,28.5,29.73,WNW,294,28.8,28.8,95,0.01,CLR,,0.13,WeatherDisplay:10.37,2013-03-05 23:26:00,
2013-03-05 17:31:00,29.7,28.4,29.73,WNW,294,27.0,27.0,95,0.01,CLR,,0.13,WeatherDisplay:10.37,2013-03-05 23:31:00,
2013-03-05 17:36:00,29.7,28.4,29.73,WNW,294,26.5,26.5,95,0.01,CLR,,0.13,WeatherDisplay:10.37,2013-03-05 23:36:00,
2013-03-05 17:41:00,29.7,28.4,29.73,WNW,294,25.3,25.3,95,0.01,CLR,,0.13,WeatherDisplay:10.37,2013-03-05 23:41:00,
2013-03-05 17:46:00,29.7,28.4,29.73,WNW,294,26.5,26.5,95,0.01,CLR,,0.13,WeatherDisplay:10.37,2013-03-05 23:46:00,
2013-03-05 17:51:00,29.6,28.3,29.73,WNW,294,23.0,23.0,95,0.00,CLR,,0.13,WeatherDisplay:10.37,2013-03-05 23:51:00,
2013-03-05 17:56:00,29.6,28.3,29.73,WNW,294,18.4,18.4,95,0.00,CLR,,0.13,WeatherDisplay:10.37,2013-03-05 23:56:00,
2013-03-05 18:01:00,29.7,28.4,29.74,WNW,294,20.7,20.7,95,0.00,CLR,,0.13,WeatherDisplay:10.37,2013-03-06 00:01:00,
2013-03-05 18:06:00,29.6,28.3,29.74,WNW,294,26.5,26.5,95,0.00,CLR,,0.13,WeatherDisplay:10.37,2013-03-06 00:06:00,
2013-03-05 18:11:00,29.5,28.2,29.74,WNW,294,21.9,21.9,95,0.00,CLR,,0.13,WeatherDisplay:10.37,2013-03-06 00:11:00,
2013-03-05 18:16:00,29.5,28.2,29.74,WNW,294,20.7,20.7,95,0.00,CLR,,0.13,WeatherDisplay:10.37,2013-03-06 00:16:00,
2013-03-05 18:21:00,29.5,28.2,29.74,WNW,294,17.3,17.3,95,0.00,CLR,,0.13,WeatherDisplay:10.37,2013-03-06 00:21:00,
2013-03-05 18:26:00,29.5,28.2,29.75,WNW,295,19.6,19.6,95,0.00,CLR,,0.13,WeatherDisplay:10.37,2013-03-06 00:26:00,
2013-03-05 18:31:00,29.6,28.3,29.74,WNW,294,17.0,35.0,95,0.00,CLR,,0.13,WeatherDisplay:10.37,2013-03-06 00:31:00,
2013-03-05 18:36:00,29.6,28.3,29.75,WNW,294,20.0,20.0,95,0.00,CLR,,0.13,WeatherDisplay:10.37,2013-03-06 00:36:00,
2013-03-05 18:41:00,29.6,28.3,29.75,WNW,294,19.0,19.0,95,0.00,CLR,,0.13,WeatherDisplay:10.37,2013-03-06 00:41:00,
2013-03-05 18:46:00,29.6,28.3,29.75,WNW,294,21.9,21.9,95,0.00,CLR,,0.13,WeatherDisplay:10.37,2013-03-06 00:46:00,
2013-03-05 18:51:00,29.5,28.2,29.75,WNW,294,24.2,24.2,95,0.00,CLR,,0.13,WeatherDisplay:10.37,2013-03-06 00:51:00,
2013-03-05 18:56:00,29.5,28.2,29.75,WNW,294,24.2,24.2,95,0.00,CLR,,0.13,WeatherDisplay:10.37,2013-03-06 00:56:00,
2013-03-05 19:01:00,29.5,28.2,29.75,WNW,294,20.7,20.7,95,0.00,CLR,,0.13,WeatherDisplay:10.37,2013-03-06 01:01:00,
2013-03-05 19:06:00,29.5,28.2,29.75,WNW,294,20.7,20.7,95,0.00,CLR,,0.13,WeatherDisplay:10.37,2013-03-06 01:06:00,
2013-03-05 19:11:00,29.5,28.2,29.75,WNW,294,17.3,17.3,95,0.00,CLR,,0.13,WeatherDisplay:10.37,2013-03-06 01:11:00,
2013-03-05 19:16:00,29.5,28.2,29.75,WNW,294,25.3,25.3,95,0.00,CLR,,0.13,WeatherDisplay:10.37,2013-03-06 01:16:00,
2013-03-05 19:21:00,29.5,28.2,29.75,WNW,294,23.0,23.0,95,0.00,CLR,,0.13,WeatherDisplay:10.37,2013-03-06 01:21:00,
2013-03-05 19:26:00,29.5,28.2,29.75,WNW,294,20.7,20.7,95,0.00,CLR,,0.13,WeatherDisplay:10.37,2013-03-06 01:26:00,
2013-03-05 19:31:00,29.5,28.2,29.75,WNW,294,20.7,20.7,95,0.00,CLR,,0.13,WeatherDisplay:10.37,2013-03-06 01:31:00,
2013-03-05 19:36:00,29.6,28.3,29.75,WNW,294,21.9,21.9,95,0.00,CLR,,0.13,WeatherDisplay:10.37,2013-03-06 01:36:00,
2013-03-05 19:41:00,29.6,28.3,29.75,WNW,294,15.0,23.0,95,0.00,CLR,,0.13,WeatherDisplay:10.37,2013-03-06 01:41:00,
2013-03-05 19:46:00,29.6,28.3,29.75,WNW,294,26.5,26.5,95,0.00,CLR,,0.13,WeatherDisplay:10.37,2013-03-06 01:46:00,
2013-03-05 19:51:00,29.6,28.3,29.75,WNW,294,18.4,18.4,95,0.00,CLR,,0.13,WeatherDisplay:10.37,2013-03-06 01:51:00,
2013-03-05 19:56:00,29.6,28.3,29.75,WNW,294,20.7,20.7,95,0.00,CLR,,0.13,WeatherDisplay:10.37,2013-03-06 01:56:00,
2013-03-05 20:01:00,29.7,28.4,29.75,WNW,294,19.6,19.6,95,0.00,CLR,,0.13,WeatherDisplay:10.37,2013-03-06 02:01:00,
2013-03-05 20:06:00,29.7,28.4,29.75,WNW,294,18.4,18.4,95,0.00,CLR,,0.13,WeatherDisplay:10.37,2013-03-06 02:06:00,
2013-03-05 20:11:00,29.7,28.4,29.75,WNW,294,13.8,13.8,95,0.00,CLR,,0.13,WeatherDisplay:10.37,2013-03-06 02:11:00,
2013-03-05 20:16:00,29.8,28.5,29.75,WNW,294,17.3,17.3,95,0.00,CLR,,0.13,WeatherDisplay:10.37,2013-03-06 02:16:00,
2013-03-05 20:21:00,29.8,28.5,29.76,WNW,294,16.1,16.1,95,0.00,CLR,,0.13,WeatherDisplay:10.37,2013-03-06 02:21:00,
2013-03-05 20:26:00,29.8,28.5,29.75,WNW,294,12.0,12.0,95,0.00,CLR,,0.13,WeatherDisplay:10.37,2013-03-06 02:26:00,
2013-03-05 20:31:00,29.9,28.6,29.76,WNW,294,11.5,11.5,95,0.00,CLR,,0.13,WeatherDisplay:10.37,2013-03-06 02:31:00,
2013-03-05 20:36:00,30.0,28.7,29.76,WNW,294,12.0,12.0,95,0.00,CLR,,0.13,WeatherDisplay:10.37,2013-03-06 02:36:00,
2013-03-05 20:41:00,30.1,28.8,29.76,WNW,294,15.0,15.0,95,0.00,CLR,,0.13,WeatherDisplay:10.37,2013-03-06 02:41:00,
2013-03-05 20:46:00,30.1,28.8,29.76,WNW,294,18.4,18.4,95,0.00,CLR,,0.13,WeatherDisplay:10.37,2013-03-06 02:46:00,
2013-03-05 20:51:00,30.3,29.0,29.77,WNW,294,10.4,10.4,95,0.00,CLR,,0.13,WeatherDisplay:10.37,2013-03-06 02:51:00,
2013-03-05 20:56:00,30.0,28.7,29.77,WNW,293,15.0,15.0,95,0.00,CLR,,0.13,WeatherDisplay:10.37,2013-03-06 02:56:00,
2013-03-05 21:01:00,29.8,28.5,29.77,WNW,294,14.0,14.0,95,0.00,CLR,,0.13,WeatherDisplay:10.37,2013-03-06 03:01:00,
2013-03-05 21:06:00,29.7,28.4,29.77,WNW,294,17.0,17.0,95,0.00,CLR,,0.13,WeatherDisplay:10.37,2013-03-06 03:06:00,
2013-03-05 21:11:00,29.6,28.3,29.77,WNW,294,16.0,16.0,95,0.00,CLR,,0.13,WeatherDisplay:10.37,2013-03-06 03:11:00,
2013-03-05 21:16:00,29.5,28.2,29.77,WNW,294,15.0,15.0,95,0.00,CLR,,0.13,WeatherDisplay:10.37,2013-03-06 03:16:00,
2013-03-05 21:21:00,29.4,28.1,29.78,WNW,294,13.8,13.8,95,0.00,CLR,,0.13,WeatherDisplay:10.37,2013-03-06 03:21:00,
2013-03-05 21:26:00,29.4,28.1,29.77,WNW,294,12.0,12.0,95,0.00,CLR,,0.13,WeatherDisplay:10.37,2013-03-06 03:26:00,
2013-03-05 21:31:00,29.3,28.0,29.78,WNW,294,24.2,24.2,95,0.00,CLR,,0.13,WeatherDisplay:10.37,2013-03-06 03:31:00,
2013-03-05 21:36:00,29.3,28.0,29.78,WNW,294,16.1,16.1,95,0.00,CLR,,0.13,WeatherDisplay:10.37,2013-03-06 03:36:00,
2013-03-05 21:41:00,29.2,27.9,29.78,WNW,294,13.8,13.8,95,0.00,CLR,,0.13,WeatherDisplay:10.37,2013-03-06 03:41:00,
2013-03-05 21:46:00,29.1,27.8,29.79,WNW,294,20.7,20.7,95,0.00,CLR,,0.13,WeatherDisplay:10.37,2013-03-06 03:46:00,
2013-03-05 21:51:00,29.0,27.7,29.79,WNW,294,20.7,20.7,95,0.00,CLR,,0.13,WeatherDisplay:10.37,2013-03-06 03:51:00,
2013-03-05 21:56:00,29.0,27.7,29.79,WNW,295,21.9,21.9,95,0.00,CLR,,0.13,WeatherDisplay:10.37,2013-03-06 03:56:00,
2013-03-05 22:01:00,29.0,27.7,29.80,WNW,294,19.6,19.6,95,0.00,CLR,,0.13,WeatherDisplay:10.37,2013-03-06 04:01:00,
2013-03-05 22:06:00,29.0,27.7,29.80,WNW,294,15.0,15.0,95,0.00,CLR,,0.13,WeatherDisplay:10.37,2013-03-06 04:06:00,
2013-03-05 22:11:00,29.1,27.8,29.80,WNW,294,12.7,12.7,95,0.00,CLR,,0.13,WeatherDisplay:10.37,2013-03-06 04:11:00,
2013-03-05 22:16:00,29.1,27.8,29.81,WNW,294,16.1,16.1,95,0.00,CLR,,0.13,WeatherDisplay:10.37,2013-03-06 04:16:00,
2013-03-05 22:21:00,29.2,27.9,29.81,WNW,294,16.1,16.1,95,0.00,CLR,,0.13,WeatherDisplay:10.37,2013-03-06 04:21:00,
2013-03-05 22:26:00,29.2,27.9,29.81,WNW,294,17.3,17.3,95,0.00,CLR,,0.13,WeatherDisplay:10.37,2013-03-06 04:26:00,
2013-03-05 22:32:00,29.2,27.9,29.82,WNW,294,16.1,16.1,95,0.00,CLR,,0.13,WeatherDisplay:10.37,2013-03-06 04:32:00,
2013-03-05 22:37:00,29.2,27.9,29.82,WNW,294,17.0,17.0,95,0.00,CLR,,0.13,WeatherDisplay:10.37,2013-03-06 04:37:00,
2013-03-05 22:42:00,29.3,28.0,29.82,WNW,294,12.7,12.7,95,0.00,CLR,,0.13,WeatherDisplay:10.37,2013-03-06 04:42:00,
2013-03-05 22:47:00,29.3,28.0,29.83,WNW,294,16.1,16.1,95,0.00,CLR,,0.13,WeatherDisplay:10.37,2013-03-06 04:47:00,
2013-03-05 22:52:00,29.4,28.1,29.83,WNW,294,15.0,15.0,95,0.00,CLR,,0.13,WeatherDisplay:10.37,2013-03-06 04:52:00,
2013-03-05 22:57:00,29.5,28.2,29.83,WNW,294,16.1,16.1,95,0.00,CLR,,0.13,WeatherDisplay:10.37,2013-03-06 04:57:00,
2013-03-05 23:00:00,29.6,28.3,29.83,WNW,294,13.8,13.8,95,0.00,CLR,,0.13,WeatherDisplay:10.37,2013-03-06 05:00:00,
2013-03-05 23:05:00,29.6,28.3,29.83,WNW,294,12.7,12.7,95,0.00,CLR,,0.13,WeatherDisplay:10.37,2013-03-06 05:05:00,
2013-03-05 23:10:00,29.7,28.4,29.83,WNW,294,12.7,12.7,95,0.00,CLR,,0.13,WeatherDisplay:10.37,2013-03-06 05:10:00,
2013-03-05 23:15:00,29.7,28.4,29.83,WNW,294,17.0,17.0,95,0.00,CLR,,0.13,WeatherDisplay:10.37,2013-03-06 05:15:00,
2013-03-05 23:20:00,29.7,28.4,29.83,WNW,294,11.5,11.5,95,0.00,CLR,,0.13,WeatherDisplay:10.37,2013-03-06 05:20:00,
2013-03-05 23:25:00,29.7,28.4,29.83,WNW,294,16.1,16.1,95,0.00,CLR,,0.13,WeatherDisplay:10.37,2013-03-06 05:25:00,
2013-03-05 23:30:00,29.7,28.4,29.83,WNW,294,16.1,16.1,95,0.00,CLR,,0.13,WeatherDisplay:10.37,2013-03-06 05:30:00,
2013-03-05 23:35:00,29.7,28.4,29.83,WNW,294,19.6,19.6,95,0.00,CLR,,0.13,WeatherDisplay:10.37,2013-03-06 05:35:00,
2013-03-05 23:40:00,29.5,28.2,29.84,WNW,294,18.4,18.4,95,0.00,CLR,,0.13,WeatherDisplay:10.37,2013-03-06 05:40:00,
2013-03-05 23:45:00,29.5,28.2,29.84,WNW,294,25.3,25.3,95,0.00,CLR,,0.13,WeatherDisplay:10.37,2013-03-06 05:45:00,
2013-03-05 23:50:00,29.5,28.2,29.84,WNW,294,24.2,24.2,95,0.00,CLR,,0.13,WeatherDisplay:10.37,2013-03-06 05:50:00,
2013-03-05 23:55:00,29.5,28.2,29.84,WNW,294,20.7,20.7,95,0.00,CLR,,0.13,WeatherDisplay:10.37,2013-03-06 05:55:00,